Tropical Cyclones
[Index]
Main Index Home Page Stock Weather Photos Extreme Storms Discussion Storm News and Storm Chasing Reports Tropical Cyclones / Hurricanes / Typhoons Weather Data and Links Wild Fires / Bushfires Weather Observation Techniques Weather Picture Catalogue Tornado Pictures and Reports Stock Video Footage and DVDs for sale
Season 2001-2002 Tropical Cyclone UPIA Track Map
Season 2001-2002 Summaries: [BoM-AU] [JTWC-AU] [JTWC-SIO] [JTWC-SPAC] [JTWC-SH]
<<- Previous TC | JTWC 2001-2002 Season | Next TC ->>

click for intensity scale information  Lat/long Grid: Show Hide

 Date Labels: Show Hide

Joint Typhoon Warning Centre Cyclone Data

Name: UPIA

23 May 2002 06:00 UTC to 28 May 2002 06:00 UTC

    date/time    lat    long     hPa   cat  kts
2002-05-23 06    6.6   157.3    1002         25          
2002-05-23 12    7.0   156.9    1002         25          
2002-05-23 18    7.3   156.3    1002         25          
2002-05-24 00    7.4   155.5    1002         25          
2002-05-24 06    7.4   154.9    1002         25          
2002-05-24 12    7.4   154.6    1002         25          
2002-05-24 18    7.5   154.3    1002         25          
2002-05-25 00    7.7   154.0    1002         25          
2002-05-25 06    7.9   153.7     997         35          
2002-05-25 12    8.1   153.6     997         35          
2002-05-25 18    8.3   153.6     997         35          
2002-05-26 00    8.6   153.7     997         35          
2002-05-26 06    8.8   153.8     997         35          
2002-05-26 12    8.9   153.8     997         35          
2002-05-26 18    9.0   153.9     997         35          
2002-05-27 00    9.0   153.9     997         35          
2002-05-27 06    9.1   153.9     997         35          
2002-05-27 12    9.2   154.0     997         35          
2002-05-27 18    9.3   154.1     997         35          
2002-05-28 00    9.4   154.1    1000         30          
2002-05-28 06    9.8   154.3    1000         30          
Winds are 1-min average.

Tropical cyclone tracks developed by Michael Bath using data from the Joint Typhoon Warning Centre Best Tracks and Google Maps.


[Australian Severe Weather index] [Copyright Notice] [Email Contacts] [Search This Site] [Privacy Policy]
Document: tropical_cyclone_upia.htm Updated: 28 June 2017